• Join FlightAware (Why Join?)
  • Login
  • US Flag 
06:15AM EDT


 

Airport Tracker/Info


-or-


 

Live Flight TrackerFlight Track Log ✈ SKW5405 ✈ 19-Jul-2013 ✈ KCRQ - KLAX

Flight Track Log - Related Links

Times and Time Zones

All times are in EDT time to prevent confusion due to time zone crossing. See the SKW5405 flight status page for this flight to view local times or setup timezone preferences in your user account.

Time Position Orientation Groundspeed Altitude Reporting Facility
EDT Latitude Longitude Course Direction KTS MPH feet Rate Location/Type
11:22PM 33.1333 -117.3000 253° West 150 173 1,500  Level Southern California TRACON
11:23PM 33.1167 -117.3667 253° West 196 226 3,500 2,040 Climbing Southern California TRACON
11:24PM 33.1167 -117.4333 270° West 203 234 5,600 2,160 Climbing Southern California TRACON
11:25PM 33.1167 -117.5000 270° West 214 246 7,700 1,260 Climbing Southern California TRACON
11:26PM 33.1667 -117.5500 320° Northwest 259 298 8,000 120 Climbing Southern California TRACON
11:27PM 33.2167 -117.5833 331° Northwest 270 311 8,000  Level Southern California TRACON
11:28PM 33.3000 -117.6500 326° Northwest 266 306 8,000  Level Southern California TRACON
11:29PM 33.3500 -117.6833 331° Northwest 265 305 8,000  Level Southern California TRACON
11:30PM 33.4000 -117.7333 320° Northwest 264 304 8,100  Climbing Southern California TRACON
11:31PM 33.4667 -117.7833 328° Northwest 265 305 8,000  Descending Southern California TRACON
11:32PM 33.5333 -117.8500 320° Northwest 266 306 8,100 -120 Climbing Southern California TRACON
11:33PM 33.5833 -117.9000 320° Northwest 270 311 7,800 -540 Descending Southern California TRACON
11:34PM 33.6500 -117.9500 328° Northwest 270 311 7,100 -360 Descending Southern California TRACON
11:35PM 33.7167 -118.0000 328° Northwest 254 292 7,100  Level Southern California TRACON
11:36PM 33.7833 -118.0500 328° Northwest 288 331 7,100 -360 Level Southern California TRACON
11:37PM 33.8500 -118.0667 348° North 250 288 6,400 -600 Descending Southern California TRACON
11:38PM 33.9000 -118.1000 331° Northwest 223 257 5,900 -720 Descending Southern California TRACON
11:39PM 33.9500 -118.1500 320° Northwest 198 228 5,000 -1,200 Descending Southern California TRACON
11:39PM 33.9569 -118.1747 289° West 203 234 4,100 -1,380 Descending Los Angeles Center
11:40PM 33.9531 -118.2372 266° West 191 220 2,900 -1,200 Descending Los Angeles Center
11:41PM 33.9469 -118.2942 263° West 181 208 1,700 -1,080 Descending Los Angeles Center
11:42PM 33.9422 -118.3419 263° West 162 186 800 -900 Descending Los Angeles Center
11:45PM 33.9333 -118.4000 270° West  Level FlightAware Approximate
11:52PM 33.9425 -118.4081 270° West  Level Estimated